Dodson, Texas
Current Conditions -  °F | °C
As of 3:04 PM on Saturday 22 Nov 2014 (Local Time) from KCDS Reporting Station
Scattered Clouds Scattered Clouds  
Wind Chill: 12°   Ceiling: Unl
Heat Index: 12°   Visibility: 10mi
Dew Point: 10°   Wind: 13mph
Humidity: 89%   Direction: 110°ESE
Pressure: 29.79"   Gusts: NA
Location:  34.77°N, 100.02°W
Report Text: KCDS 222104Z AUTO 11011KT 10SM FEW013 SCT018 SCT031 12/10 A2979 RMK AO2 T01170100
Loading
Personal Weather Stations






























Interactive Weather Map New forecast layout! Learn more

10-Day Weather Forecast

Advertisements
Track Severe Weather on mobile